createdAt,value
2019-03-06T00:01:01.545Z,2.80
2019-03-06T00:03:32.446Z,2.80
2019-03-06T00:06:01.712Z,2.73
2019-03-06T00:08:30.994Z,2.80
2019-03-06T00:11:00.257Z,2.50
2019-03-06T00:13:29.605Z,2.97
2019-03-06T00:15:58.881Z,2.53
2019-03-06T00:18:28.180Z,2.50
2019-03-06T00:20:57.442Z,2.60
2019-03-06T00:23:26.800Z,2.50
2019-03-06T00:25:56.412Z,2.37
2019-03-06T00:28:25.700Z,2.80
2019-03-06T00:30:54.969Z,2.27
2019-03-06T00:33:24.256Z,2.23
2019-03-06T00:35:55.152Z,2.60
2019-03-06T00:38:24.648Z,2.83
2019-03-06T00:40:55.551Z,2.70
2019-03-06T00:43:24.921Z,2.17
2019-03-06T00:45:54.195Z,2.20
2019-03-06T00:48:23.458Z,2.43
2019-03-06T00:50:52.744Z,2.10
2019-03-06T00:53:22.035Z,2.00
2019-03-06T00:55:51.306Z,1.80
2019-03-06T00:58:20.591Z,2.10
2019-03-06T01:00:49.876Z,2.50
2019-03-06T01:03:19.309Z,2.20
2019-03-06T01:05:48.605Z,1.90
2019-03-06T01:08:17.870Z,2.00
2019-03-06T01:10:47.262Z,1.90
2019-03-06T01:13:16.525Z,1.50
2019-03-06T01:15:45.817Z,1.93
2019-03-06T01:18:15.086Z,2.33
2019-03-06T01:20:44.376Z,1.83
2019-03-06T01:23:13.638Z,1.90
2019-03-06T01:25:44.171Z,1.53
2019-03-06T01:28:13.437Z,1.70
2019-03-06T01:30:42.725Z,2.27
2019-03-06T01:33:13.662Z,1.70
2019-03-06T01:36:02.680Z,1.83
2019-03-06T01:38:45.421Z,1.70
2019-03-06T01:41:31.377Z,1.80
2019-03-06T01:44:04.997Z,1.77
2019-03-06T01:46:34.269Z,1.80
2019-03-06T01:49:03.558Z,2.43
2019-03-06T01:51:32.821Z,1.83
2019-03-06T01:54:02.108Z,2.17
2019-03-06T01:56:31.370Z,1.93
2019-03-06T01:59:00.671Z,1.90
2019-03-06T02:01:29.947Z,2.00
2019-03-06T02:03:59.246Z,1.90
2019-03-06T02:06:28.520Z,2.17
2019-03-06T02:08:57.844Z,2.10
2019-03-06T02:11:28.126Z,2.00
2019-03-06T02:13:57.418Z,1.90
2019-03-06T02:16:26.974Z,2.27
2019-03-06T02:18:56.283Z,1.87
2019-03-06T02:21:25.552Z,2.40
2019-03-06T02:23:54.847Z,2.17
2019-03-06T02:26:24.221Z,1.87
2019-03-06T02:28:53.686Z,2.73
2019-03-06T02:31:22.954Z,2.30
2019-03-06T02:33:52.256Z,2.13
2019-03-06T02:36:22.493Z,2.47
2019-03-06T02:38:51.793Z,2.60
2019-03-06T02:41:22.304Z,2.70
2019-03-06T02:43:51.600Z,2.50
2019-03-06T02:46:20.897Z,2.17
2019-03-06T02:48:50.212Z,2.43
2019-03-06T02:51:19.519Z,2.83
2019-03-06T02:53:49.069Z,2.60
2019-03-06T02:56:18.359Z,2.43
2019-03-06T02:58:49.263Z,2.30
2019-03-06T03:01:28.943Z,2.63
2019-03-06T03:04:16.181Z,2.73
2019-03-06T03:06:49.503Z,2.67
2019-03-06T03:09:19.368Z,2.50
2019-03-06T03:11:48.756Z,3.37
2019-03-06T03:14:18.057Z,2.70
2019-03-06T03:16:48.394Z,2.90
2019-03-06T03:19:17.688Z,2.40
2019-03-06T03:21:46.959Z,2.30
2019-03-06T03:24:16.252Z,2.77
2019-03-06T03:26:45.523Z,2.90
2019-03-06T03:29:14.811Z,2.40
2019-03-06T03:31:44.375Z,2.73
2019-03-06T03:34:14.628Z,2.40
2019-03-06T03:36:43.902Z,3.13
2019-03-06T03:39:13.196Z,2.87
2019-03-06T03:41:42.472Z,3.20
2019-03-06T03:44:11.811Z,3.80
2019-03-06T03:46:41.083Z,2.37
2019-03-06T03:49:10.359Z,2.53
2019-03-06T03:51:39.657Z,2.83
2019-03-06T03:54:08.924Z,2.60
2019-03-06T03:56:38.224Z,2.60
2019-03-06T03:59:07.495Z,2.70
2019-03-06T04:01:37.034Z,2.20
2019-03-06T04:04:06.300Z,2.60
2019-03-06T04:06:35.597Z,2.60
2019-03-06T04:09:06.111Z,2.90
2019-03-06T04:11:35.681Z,2.60
2019-03-06T04:14:05.010Z,2.73
2019-03-06T04:16:34.307Z,2.43
2019-03-06T04:19:03.579Z,2.63
2019-03-06T04:21:32.886Z,2.80
2019-03-06T04:24:02.222Z,2.33
2019-03-06T04:26:31.510Z,2.57
2019-03-06T04:29:00.997Z,2.47
2019-03-06T04:31:30.356Z,2.70
2019-03-06T04:33:59.632Z,2.60
2019-03-06T04:36:28.918Z,2.77
2019-03-06T04:38:58.188Z,3.10
2019-03-06T04:41:27.651Z,2.80
2019-03-06T04:43:56.921Z,2.43
2019-03-06T04:46:26.226Z,2.97
2019-03-06T04:48:55.495Z,2.13
2019-03-06T04:51:24.958Z,2.80
2019-03-06T04:53:54.229Z,2.43
2019-03-06T04:56:23.568Z,2.53
2019-03-06T04:58:52.839Z,2.20
2019-03-06T05:01:22.945Z,2.27
2019-03-06T05:03:52.274Z,2.10
2019-03-06T05:06:21.556Z,2.50
2019-03-06T05:08:50.871Z,2.40
2019-03-06T05:11:20.138Z,2.50
2019-03-06T05:13:49.418Z,2.40
2019-03-06T05:16:18.731Z,2.67
2019-03-06T05:18:49.635Z,2.53
2019-03-06T05:21:18.931Z,2.80
2019-03-06T05:23:48.199Z,2.60
2019-03-06T05:26:17.499Z,2.67
2019-03-06T05:28:46.765Z,2.80
2019-03-06T05:31:16.066Z,2.87
2019-03-06T05:33:45.393Z,2.87
2019-03-06T05:36:23.339Z,2.70
2019-03-06T05:39:09.162Z,3.07
2019-03-06T05:41:38.518Z,3.63
2019-03-06T05:44:07.856Z,3.00
2019-03-06T05:46:37.143Z,3.07
2019-03-06T05:49:06.471Z,2.87
2019-03-06T05:51:37.082Z,3.20
2019-03-06T05:54:06.353Z,2.70
2019-03-06T05:56:35.626Z,2.63
2019-03-06T05:59:04.985Z,2.93
2019-03-06T06:01:34.434Z,3.33
2019-03-06T06:04:03.731Z,3.00
2019-03-06T06:06:33.002Z,2.90
2019-03-06T06:09:02.290Z,3.97
2019-03-06T06:11:33.179Z,2.83
2019-03-06T06:14:02.488Z,2.70
2019-03-06T06:16:31.770Z,2.80
2019-03-06T06:19:01.743Z,3.57
2019-03-06T06:21:47.957Z,2.77
2019-03-06T06:24:17.286Z,3.53
2019-03-06T06:26:46.559Z,3.63
2019-03-06T06:29:15.856Z,4.17
2019-03-06T06:31:45.122Z,3.30
2019-03-06T06:34:14.724Z,4.23
2019-03-06T06:36:43.994Z,4.43
2019-03-06T06:39:13.286Z,5.40
2019-03-06T06:41:42.554Z,7.07
2019-03-06T06:44:11.854Z,7.70
2019-03-06T06:46:41.407Z,6.37
2019-03-06T06:49:10.699Z,8.57
2019-03-06T06:51:43.038Z,6.90
2019-03-06T06:54:15.411Z,6.27
2019-03-06T06:57:13.054Z,6.00
2019-03-06T07:00:06.514Z,5.57
2019-03-06T07:03:04.395Z,5.33
2019-03-06T07:05:41.073Z,5.77
2019-03-06T07:08:14.956Z,4.70
2019-03-06T07:10:45.910Z,5.43
2019-03-06T07:13:25.803Z,4.73
2019-03-06T07:15:59.644Z,6.47
2019-03-06T07:18:30.564Z,5.47
2019-03-06T07:21:07.507Z,4.93
2019-03-06T07:23:38.428Z,4.73
2019-03-06T07:26:21.434Z,4.97
2019-03-06T07:28:58.235Z,4.47
2019-03-06T07:31:38.040Z,5.17
2019-03-06T07:34:11.778Z,4.80
2019-03-06T07:36:45.498Z,4.97
2019-03-06T07:39:18.274Z,4.97
2019-03-06T07:41:52.181Z,4.43
2019-03-06T07:44:39.104Z,5.13
2019-03-06T07:47:15.744Z,5.50
2019-03-06T07:49:47.619Z,5.07
2019-03-06T07:52:24.171Z,4.53
2019-03-06T07:55:03.922Z,4.90
2019-03-06T07:57:40.804Z,5.07
2019-03-06T08:00:13.010Z,5.03
2019-03-06T08:02:57.023Z,4.40
2019-03-06T08:05:26.324Z,4.50
2019-03-06T08:07:55.602Z,5.10
2019-03-06T08:10:26.549Z,4.40
2019-03-06T08:13:00.408Z,4.37
2019-03-06T08:15:34.216Z,4.13
2019-03-06T08:18:05.202Z,4.73
2019-03-06T08:20:41.918Z,3.93
2019-03-06T08:23:12.878Z,4.40
2019-03-06T08:25:44.174Z,4.17
2019-03-06T08:28:14.190Z,4.97
2019-03-06T08:30:48.402Z,3.90
2019-03-06T08:33:18.491Z,4.57
2019-03-06T08:35:48.034Z,4.27
2019-03-06T08:38:17.300Z,3.50
2019-03-06T08:40:46.679Z,4.20
2019-03-06T08:43:15.987Z,3.23
2019-03-06T08:45:49.938Z,3.53
2019-03-06T08:48:23.692Z,3.20
2019-03-06T08:51:00.419Z,3.50
2019-03-06T08:53:31.375Z,3.00
2019-03-06T08:56:06.232Z,3.37
2019-03-06T08:58:37.146Z,3.67
2019-03-06T09:01:28.955Z,2.97
2019-03-06T09:04:08.584Z,2.60
2019-03-06T09:06:43.075Z,2.87
2019-03-06T09:09:29.743Z,2.40
2019-03-06T09:12:09.522Z,2.60
2019-03-06T09:14:49.357Z,2.37
2019-03-06T09:17:23.363Z,2.43
2019-03-06T09:19:54.274Z,2.40
2019-03-06T09:22:31.287Z,2.50
2019-03-06T09:25:05.064Z,2.93
2019-03-06T09:27:38.655Z,1.60
2019-03-06T09:30:16.197Z,1.87
2019-03-06T09:32:50.306Z,1.90
2019-03-06T09:35:22.569Z,1.87
2019-03-06T09:37:53.525Z,1.90
2019-03-06T09:40:24.476Z,2.00
2019-03-06T09:42:57.901Z,1.63
2019-03-06T09:45:28.922Z,1.77
2019-03-06T09:48:16.158Z,2.13
2019-03-06T09:51:02.230Z,2.30
2019-03-06T09:53:41.611Z,1.70
2019-03-06T09:56:18.451Z,2.10
2019-03-06T09:58:53.605Z,2.47
2019-03-06T10:01:33.599Z,1.70
2019-03-06T10:04:04.644Z,1.47
2019-03-06T10:06:35.650Z,2.13
2019-03-06T10:09:09.635Z,1.57
2019-03-06T10:11:47.227Z,1.40
2019-03-06T10:14:20.879Z,1.70
2019-03-06T10:16:57.974Z,1.23
2019-03-06T10:19:29.584Z,0.80
2019-03-06T10:21:59.957Z,0.90
2019-03-06T10:24:29.258Z,1.30
2019-03-06T10:26:58.561Z,1.20
2019-03-06T10:29:28.111Z,1.07
2019-03-06T10:31:57.423Z,1.23
2019-03-06T10:34:26.868Z,0.90
2019-03-06T10:36:56.166Z,1.37
2019-03-06T10:39:25.550Z,1.20
2019-03-06T10:41:56.434Z,1.00
2019-03-06T10:44:29.585Z,1.87
2019-03-06T10:46:56.713Z,1.10
2019-03-06T10:49:26.975Z,1.10
2019-03-06T10:51:57.822Z,1.50
2019-03-06T10:54:27.394Z,1.90
2019-03-06T10:56:56.829Z,1.13
2019-03-06T10:59:26.130Z,1.13
2019-03-06T11:01:56.446Z,0.80
2019-03-06T11:04:30.326Z,1.17
2019-03-06T11:06:59.767Z,0.97
2019-03-06T11:09:29.478Z,1.20
2019-03-06T11:11:58.847Z,1.33
2019-03-06T11:14:28.662Z,0.90
2019-03-06T11:16:58.018Z,1.07
2019-03-06T11:19:27.499Z,1.00
2019-03-06T11:21:56.847Z,1.10
2019-03-06T11:24:26.292Z,0.77
2019-03-06T11:26:55.726Z,1.17
2019-03-06T11:29:25.291Z,1.27
2019-03-06T11:31:54.707Z,1.00
2019-03-06T11:34:24.218Z,1.10
2019-03-06T11:36:55.213Z,1.03
2019-03-06T11:39:24.750Z,1.00
2019-03-06T11:41:54.026Z,1.30
2019-03-06T11:44:23.361Z,1.13
2019-03-06T11:46:53.124Z,0.97
2019-03-06T11:49:23.566Z,1.30
2019-03-06T11:51:53.087Z,1.00
2019-03-06T11:54:22.458Z,1.30
2019-03-06T11:56:52.451Z,1.17
2019-03-06T11:59:21.821Z,1.20
2019-03-06T12:01:51.169Z,1.00
2019-03-06T12:04:20.603Z,0.80
2019-03-06T12:06:49.886Z,0.97
2019-03-06T12:09:26.889Z,0.97
2019-03-06T12:11:56.797Z,1.03
2019-03-06T12:14:26.746Z,1.17
2019-03-06T12:16:57.168Z,0.80
2019-03-06T12:19:26.730Z,1.33
2019-03-06T12:21:56.739Z,1.00
2019-03-06T12:24:27.554Z,0.80
2019-03-06T12:26:56.997Z,1.00
2019-03-06T12:29:27.818Z,1.10
2019-03-06T12:31:57.323Z,1.13
2019-03-06T12:34:30.973Z,1.03
2019-03-06T12:37:00.551Z,1.17
2019-03-06T12:39:30.200Z,1.57
2019-03-06T12:41:59.470Z,1.13
2019-03-06T12:44:28.848Z,0.80
2019-03-06T12:46:58.407Z,1.60
2019-03-06T12:49:27.723Z,1.40
2019-03-06T12:51:57.220Z,1.23
2019-03-06T12:54:29.219Z,1.20
2019-03-06T12:56:58.574Z,1.20
2019-03-06T12:59:28.147Z,1.47
2019-03-06T13:01:57.436Z,1.20
2019-03-06T13:04:26.742Z,1.57
2019-03-06T13:06:56.050Z,0.97
2019-03-06T13:09:25.890Z,1.10
2019-03-06T13:11:55.208Z,1.10
2019-03-06T13:14:24.692Z,1.00
2019-03-06T13:16:54.237Z,0.97
2019-03-06T13:19:23.599Z,1.20
2019-03-06T13:21:52.877Z,1.47
2019-03-06T13:24:22.178Z,1.10
2019-03-06T13:26:52.547Z,1.20
2019-03-06T13:29:21.865Z,1.00
2019-03-06T13:31:51.143Z,1.03
2019-03-06T13:34:24.872Z,0.97
2019-03-06T13:36:54.146Z,0.80
2019-03-06T13:39:23.457Z,1.10
2019-03-06T13:41:53.007Z,1.30
2019-03-06T13:44:22.318Z,0.93
2019-03-06T13:46:51.616Z,0.90
2019-03-06T13:49:23.012Z,0.97
2019-03-06T13:51:52.295Z,0.87
2019-03-06T13:54:21.835Z,1.20
2019-03-06T13:56:51.901Z,1.10
2019-03-06T13:59:21.242Z,0.90
2019-03-06T14:01:50.520Z,1.53
2019-03-06T14:04:19.994Z,0.87
2019-03-06T14:06:49.273Z,0.80
2019-03-06T14:09:18.553Z,1.00
2019-03-06T14:11:48.066Z,1.13
2019-03-06T14:14:17.343Z,0.67
2019-03-06T14:16:46.662Z,0.63
2019-03-06T14:19:16.915Z,0.93
2019-03-06T14:21:46.289Z,1.10
2019-03-06T14:24:15.570Z,0.97
2019-03-06T14:26:44.879Z,1.03
2019-03-06T14:29:15.231Z,0.97
2019-03-06T14:31:44.803Z,0.70
2019-03-06T14:34:14.323Z,0.70
2019-03-06T14:36:43.912Z,0.90
2019-03-06T14:39:21.715Z,0.87
2019-03-06T14:41:51.278Z,0.83
2019-03-06T14:44:20.627Z,0.97
2019-03-06T14:46:50.072Z,0.87
2019-03-06T14:49:19.376Z,1.00
2019-03-06T14:51:48.677Z,0.70
2019-03-06T14:54:18.522Z,0.90
2019-03-06T14:56:47.822Z,1.13
2019-03-06T14:59:17.307Z,1.00
2019-03-06T15:01:46.607Z,0.97
2019-03-06T15:04:15.895Z,0.90
2019-03-06T15:06:45.462Z,0.97
2019-03-06T15:09:20.552Z,0.90
2019-03-06T15:11:50.067Z,0.80
2019-03-06T15:14:19.350Z,2.47
2019-03-06T15:16:48.751Z,1.07
2019-03-06T15:19:18.114Z,1.10
2019-03-06T15:21:47.414Z,1.40
2019-03-06T15:24:16.696Z,0.93
2019-03-06T15:26:46.687Z,1.10
2019-03-06T15:29:16.038Z,0.97
2019-03-06T15:31:45.423Z,1.00
2019-03-06T15:34:15.029Z,1.00
2019-03-06T15:36:44.308Z,1.10
2019-03-06T15:39:30.926Z,0.83
2019-03-06T15:42:01.217Z,0.90
2019-03-06T15:44:31.652Z,1.10
2019-03-06T15:47:00.948Z,1.00
2019-03-06T15:49:30.322Z,1.20
2019-03-06T15:51:59.601Z,1.20
2019-03-06T15:54:28.967Z,1.00
2019-03-06T15:56:58.315Z,0.90
2019-03-06T15:59:27.631Z,0.83
2019-03-06T16:01:56.970Z,1.20
2019-03-06T16:04:26.271Z,0.77
2019-03-06T16:06:55.620Z,1.60
2019-03-06T16:09:25.000Z,0.90
2019-03-06T16:11:54.454Z,1.23
2019-03-06T16:14:23.746Z,0.80
2019-03-06T16:16:53.030Z,1.10
2019-03-06T16:19:23.308Z,1.10
2019-03-06T16:21:52.590Z,0.93
2019-03-06T16:24:22.728Z,1.40
2019-03-06T16:26:52.070Z,1.00
2019-03-06T16:29:21.375Z,1.17
2019-03-06T16:31:50.654Z,1.13
2019-03-06T16:34:19.952Z,1.30
2019-03-06T16:36:49.294Z,1.40
2019-03-06T16:39:20.274Z,1.83
2019-03-06T16:41:49.547Z,1.23
2019-03-06T16:44:18.852Z,1.40
2019-03-06T16:46:48.131Z,1.60
2019-03-06T16:49:17.431Z,1.50
2019-03-06T16:51:46.709Z,1.80
2019-03-06T16:54:16.254Z,1.67
2019-03-06T16:56:45.534Z,1.77
2019-03-06T16:59:14.835Z,1.20
2019-03-06T17:01:44.106Z,1.57
2019-03-06T17:04:13.418Z,2.07
2019-03-06T17:06:42.911Z,1.47
2019-03-06T17:09:12.660Z,1.70
2019-03-06T17:11:42.332Z,1.40
2019-03-06T17:14:11.644Z,1.60
2019-03-06T17:16:40.995Z,2.80
2019-03-06T17:19:10.398Z,1.90
2019-03-06T17:21:39.956Z,1.50
2019-03-06T17:24:09.280Z,1.70
2019-03-06T17:26:38.619Z,1.30
2019-03-06T17:29:12.567Z,1.50
2019-03-06T17:31:42.323Z,1.83
2019-03-06T17:34:11.687Z,1.30
2019-03-06T17:36:41.031Z,1.53
2019-03-06T17:39:10.402Z,1.40
2019-03-06T17:41:40.178Z,1.47
2019-03-06T17:44:11.163Z,1.80
2019-03-06T17:46:40.586Z,1.50
2019-03-06T17:49:10.056Z,2.27
2019-03-06T17:51:39.427Z,2.10
2019-03-06T17:54:08.707Z,2.13
2019-03-06T17:56:38.007Z,2.00
2019-03-06T17:59:07.291Z,1.80
2019-03-06T18:01:36.662Z,2.07
2019-03-06T18:04:07.719Z,2.10
2019-03-06T18:06:37.150Z,1.83
2019-03-06T18:09:07.375Z,2.10
2019-03-06T18:11:38.315Z,1.97
2019-03-06T18:14:07.602Z,1.83
2019-03-06T18:16:37.315Z,1.80
2019-03-06T18:19:06.640Z,2.30
2019-03-06T18:21:36.021Z,2.60
2019-03-06T18:24:05.448Z,3.13
2019-03-06T18:26:34.743Z,3.83
2019-03-06T18:29:04.092Z,3.20
2019-03-06T18:31:33.686Z,2.70
2019-03-06T18:34:03.074Z,2.60
2019-03-06T18:36:32.548Z,1.73
2019-03-06T18:39:01.918Z,1.90
2019-03-06T18:41:32.898Z,2.00
2019-03-06T18:44:02.190Z,1.90
2019-03-06T18:46:31.672Z,1.90
2019-03-06T18:49:00.955Z,2.27
2019-03-06T18:51:30.246Z,2.57
2019-03-06T18:53:59.603Z,2.43
2019-03-06T18:56:28.915Z,2.30
2019-03-06T18:58:59.007Z,2.50
2019-03-06T19:01:29.467Z,4.00
2019-03-06T19:03:58.871Z,4.83
2019-03-06T19:06:28.397Z,2.03
2019-03-06T19:08:57.766Z,2.00
2019-03-06T19:11:28.039Z,2.37
2019-03-06T19:13:57.354Z,2.40
2019-03-06T19:16:26.642Z,1.87
2019-03-06T19:18:56.023Z,2.13
2019-03-06T19:21:25.378Z,2.07
2019-03-06T19:23:54.733Z,2.63
2019-03-06T19:26:24.013Z,1.60
2019-03-06T19:28:53.453Z,1.67
2019-03-06T19:31:22.738Z,1.80
2019-03-06T19:33:52.051Z,1.63
2019-03-06T19:36:22.386Z,1.70
2019-03-06T19:38:51.683Z,1.50
2019-03-06T19:41:20.983Z,1.90
2019-03-06T19:43:50.334Z,1.70
2019-03-06T19:46:19.637Z,1.63
2019-03-06T19:48:48.915Z,1.80
2019-03-06T19:51:18.207Z,1.97
2019-03-06T19:53:47.501Z,1.70
2019-03-06T19:56:18.507Z,2.10
2019-03-06T19:58:47.851Z,3.50
2019-03-06T20:01:17.134Z,2.50
2019-03-06T20:03:46.431Z,2.47
2019-03-06T20:06:15.854Z,1.97
2019-03-06T20:08:45.295Z,2.13
2019-03-06T20:11:14.585Z,2.00
2019-03-06T20:13:43.958Z,2.60
2019-03-06T20:16:13.258Z,2.37
2019-03-06T20:18:42.578Z,2.20
2019-03-06T20:21:11.850Z,2.63
2019-03-06T20:23:41.220Z,2.77
2019-03-06T20:26:13.857Z,2.30
2019-03-06T20:28:41.647Z,2.07
2019-03-06T20:31:10.925Z,2.40
2019-03-06T20:33:41.194Z,2.40
2019-03-06T20:36:10.543Z,2.40
2019-03-06T20:38:39.906Z,2.13
2019-03-06T20:41:09.186Z,2.40
2019-03-06T20:43:38.490Z,2.17
2019-03-06T20:46:07.763Z,1.93
2019-03-06T20:48:37.058Z,2.20
2019-03-06T20:51:08.361Z,2.40
2019-03-06T20:53:37.334Z,2.20
2019-03-06T20:56:06.621Z,2.50
2019-03-06T20:58:35.920Z,2.20
2019-03-06T21:01:05.198Z,1.97
2019-03-06T21:03:34.570Z,1.77
2019-03-06T21:06:03.918Z,1.90
2019-03-06T21:08:33.218Z,2.30
2019-03-06T21:11:02.502Z,1.43
2019-03-06T21:13:31.802Z,2.00
2019-03-06T21:16:01.195Z,1.70
2019-03-06T21:18:30.567Z,1.80
2019-03-06T21:21:01.086Z,1.83
2019-03-06T21:23:30.387Z,1.90
2019-03-06T21:25:59.659Z,1.70
2019-03-06T21:28:28.958Z,1.57
2019-03-06T21:30:58.247Z,1.70
2019-03-06T21:33:27.681Z,1.37
2019-03-06T21:35:57.232Z,1.50
2019-03-06T21:38:26.538Z,1.67
2019-03-06T21:40:55.926Z,1.90
2019-03-06T21:43:25.340Z,1.43
2019-03-06T21:45:54.691Z,1.60
2019-03-06T21:48:23.990Z,1.70
2019-03-06T21:50:53.538Z,1.70
2019-03-06T21:53:22.831Z,1.50
2019-03-06T21:55:52.195Z,1.37
2019-03-06T21:58:21.742Z,1.40
2019-03-06T22:00:51.091Z,1.53
2019-03-06T22:03:20.526Z,1.10
2019-03-06T22:05:50.104Z,1.20
2019-03-06T22:08:19.402Z,2.13
2019-03-06T22:10:48.778Z,1.67
2019-03-06T22:13:18.140Z,1.23
2019-03-06T22:15:47.415Z,1.33
2019-03-06T22:18:16.819Z,1.60
2019-03-06T22:20:47.287Z,1.60
2019-03-06T22:23:16.570Z,1.40
2019-03-06T22:25:45.908Z,1.60
2019-03-06T22:28:15.261Z,1.60
2019-03-06T22:30:44.538Z,1.60
2019-03-06T22:33:13.842Z,1.93
2019-03-06T22:35:43.300Z,1.50
2019-03-06T22:38:12.581Z,1.93
2019-03-06T22:40:41.879Z,1.90
2019-03-06T22:43:11.185Z,2.57
2019-03-06T22:45:40.464Z,2.13
2019-03-06T22:48:09.780Z,1.83
2019-03-06T22:50:39.173Z,2.00
2019-03-06T22:53:08.506Z,1.87
2019-03-06T22:55:37.813Z,2.00
2019-03-06T22:58:07.096Z,1.63
2019-03-06T23:00:43.294Z,1.77
2019-03-06T23:03:15.022Z,2.50
2019-03-06T23:05:44.330Z,1.90
2019-03-06T23:08:13.613Z,1.60
2019-03-06T23:10:42.982Z,1.60
2019-03-06T23:13:12.260Z,1.30
2019-03-06T23:15:41.909Z,1.30
2019-03-06T23:18:11.757Z,1.60
2019-03-06T23:20:41.058Z,1.60
2019-03-06T23:23:10.513Z,1.40
2019-03-06T23:25:39.814Z,1.70
2019-03-06T23:28:09.098Z,1.70
2019-03-06T23:30:38.398Z,1.77
2019-03-06T23:33:07.841Z,2.00
2019-03-06T23:35:37.137Z,2.00
2019-03-06T23:38:06.416Z,1.73
2019-03-06T23:40:35.718Z,1.53
2019-03-06T23:43:05.270Z,1.70
2019-03-06T23:45:34.578Z,1.70
2019-03-06T23:48:03.967Z,1.90
2019-03-06T23:50:33.314Z,1.60
2019-03-06T23:53:06.520Z,1.87
2019-03-06T23:55:35.935Z,1.90
2019-03-06T23:58:05.256Z,1.90
